createdAt,value
2018-06-12T00:00:10.332Z,77.49
2018-06-12T00:05:05.013Z,78.30
2018-06-12T00:09:59.489Z,77.95
2018-06-12T00:14:53.972Z,77.83
2018-06-12T00:19:48.458Z,78.41
2018-06-12T00:24:43.009Z,78.46
2018-06-12T00:29:37.502Z,78.07
2018-06-12T00:34:31.996Z,77.66
2018-06-12T00:39:26.488Z,77.55
2018-06-12T00:44:20.936Z,77.91
2018-06-12T00:49:15.387Z,77.73
2018-06-12T00:54:09.849Z,77.69
2018-06-12T00:59:04.467Z,77.72
2018-06-12T01:03:58.977Z,78.13
2018-06-12T01:08:53.468Z,78.01
2018-06-12T01:13:47.939Z,77.21
2018-06-12T01:18:42.437Z,77.32
2018-06-12T01:23:36.880Z,77.70
2018-06-12T01:28:31.304Z,77.91
2018-06-12T01:33:25.752Z,77.65
2018-06-12T01:38:20.252Z,77.98
2018-06-12T01:43:14.745Z,77.48
2018-06-12T01:48:09.161Z,77.93
2018-06-12T01:53:03.701Z,77.93
2018-06-12T01:57:58.096Z,77.69
2018-06-12T02:02:52.501Z,77.97
2018-06-12T02:07:46.938Z,77.28
2018-06-12T02:12:45.347Z,77.73
2018-06-12T02:17:39.778Z,78.38
2018-06-12T02:22:34.193Z,77.26
2018-06-12T02:27:28.625Z,77.30
2018-06-12T02:32:23.084Z,77.91
2018-06-12T02:37:17.512Z,77.47
2018-06-12T02:42:12.005Z,78.20
2018-06-12T02:47:06.421Z,78.16
2018-06-12T02:52:00.901Z,78.17
2018-06-12T02:56:55.396Z,77.65
2018-06-12T03:01:49.863Z,77.44
2018-06-12T03:06:44.353Z,78.39
2018-06-12T03:11:38.793Z,77.27
2018-06-12T03:16:33.237Z,77.75
2018-06-12T03:21:27.651Z,77.72
2018-06-12T03:26:22.092Z,77.73
2018-06-12T03:31:16.491Z,77.50
2018-06-12T03:36:10.983Z,77.58
2018-06-12T03:41:05.532Z,77.26
2018-06-12T03:45:59.996Z,77.19
2018-06-12T03:50:54.453Z,76.57
2018-06-12T03:55:48.907Z,76.73
2018-06-12T04:00:43.389Z,75.10
2018-06-12T04:05:37.900Z,72.16
2018-06-12T04:10:32.338Z,68.40
2018-06-12T04:15:26.809Z,65.00
2018-06-12T04:20:21.290Z,65.41
2018-06-12T04:25:15.705Z,67.27
2018-06-12T04:30:10.140Z,68.52
2018-06-12T04:35:04.718Z,69.66
2018-06-12T04:39:59.235Z,69.63
2018-06-12T04:44:53.662Z,70.83
2018-06-12T04:49:48.092Z,71.33
2018-06-12T04:54:42.587Z,71.10
2018-06-12T04:59:37.026Z,71.30
2018-06-12T05:04:31.464Z,71.76
2018-06-12T05:09:25.952Z,72.12
2018-06-12T05:14:20.454Z,71.64
2018-06-12T05:19:22.692Z,71.58
2018-06-12T05:24:17.250Z,71.90
2018-06-12T05:29:12.058Z,71.25
2018-06-12T05:34:15.809Z,66.03
2018-06-12T05:39:12.071Z,62.18
2018-06-12T05:44:06.655Z,61.46
2018-06-12T05:49:01.338Z,60.63
2018-06-12T05:53:55.761Z,60.45
2018-06-12T05:58:50.176Z,58.45
2018-06-12T06:03:44.642Z,57.78
2018-06-12T06:08:39.084Z,57.49
2018-06-12T06:13:33.500Z,58.23
2018-06-12T06:18:27.953Z,59.44
2018-06-12T06:23:22.348Z,59.53
2018-06-12T06:28:16.745Z,60.76
2018-06-12T06:33:11.223Z,60.85
2018-06-12T06:38:11.747Z,61.02
2018-06-12T06:43:06.554Z,60.47
2018-06-12T06:48:00.988Z,60.67
2018-06-12T06:52:55.695Z,61.59
2018-06-12T06:57:50.184Z,63.04
2018-06-12T07:02:45.098Z,62.33
2018-06-12T07:07:43.676Z,60.99
2018-06-12T07:13:01.087Z,59.81
2018-06-12T07:17:55.556Z,57.77
2018-06-12T07:22:50.755Z,56.68
2018-06-12T07:27:45.217Z,56.97
2018-06-12T07:32:39.364Z,58.36
2018-06-12T07:37:33.823Z,58.73
2018-06-12T07:42:28.213Z,58.57
2018-06-12T07:47:22.696Z,57.93
2018-06-12T07:52:17.121Z,58.13
2018-06-12T07:57:11.589Z,57.78
2018-06-12T08:02:06.096Z,58.38
2018-06-12T08:07:00.732Z,57.64
2018-06-12T08:11:55.160Z,55.79
2018-06-12T08:16:49.704Z,55.42
2018-06-12T08:21:44.192Z,52.42
2018-06-12T08:26:38.681Z,51.65
2018-06-12T08:31:32.811Z,51.70
2018-06-12T08:36:27.371Z,50.74
2018-06-12T08:41:21.805Z,50.84
2018-06-12T08:46:16.200Z,51.24
2018-06-12T08:51:10.986Z,51.38
2018-06-12T08:56:05.444Z,50.94
2018-06-12T09:01:00.095Z,52.51
2018-06-12T09:05:54.766Z,52.10
2018-06-12T09:10:50.775Z,52.51
2018-06-12T09:15:46.077Z,51.18
2018-06-12T09:20:40.523Z,52.39
2018-06-12T09:25:34.944Z,52.15
2018-06-12T09:30:32.840Z,52.41
2018-06-12T09:35:29.316Z,51.60
2018-06-12T09:40:26.804Z,50.55
2018-06-12T09:45:22.553Z,56.91
2018-06-12T09:50:19.958Z,57.13
2018-06-12T09:55:15.002Z,56.31
2018-06-12T10:00:09.688Z,53.87
2018-06-12T10:05:05.041Z,52.25
2018-06-12T10:09:59.535Z,52.65
2018-06-12T10:15:08.976Z,50.28
2018-06-12T10:20:03.780Z,48.24
2018-06-12T10:24:58.788Z,48.08
2018-06-12T10:29:53.300Z,47.46
2018-06-12T10:34:47.700Z,48.28
2018-06-12T10:39:42.140Z,46.17
2018-06-12T10:44:36.876Z,47.01
2018-06-12T10:49:31.655Z,45.47
2018-06-12T10:54:28.335Z,45.74
2018-06-12T10:59:22.829Z,44.83
2018-06-12T11:04:17.967Z,47.80
2018-06-12T11:09:12.503Z,45.69
2018-06-12T11:14:07.458Z,45.95
2018-06-12T11:19:05.884Z,46.70
2018-06-12T11:24:01.342Z,45.46
2018-06-12T11:28:58.860Z,44.82
2018-06-12T11:33:53.798Z,42.89
2018-06-12T11:38:48.394Z,43.17
2018-06-12T11:43:42.949Z,44.25
2018-06-12T11:48:37.263Z,44.37
2018-06-12T11:53:31.735Z,45.00
2018-06-12T11:58:26.395Z,45.56
2018-06-12T12:03:21.079Z,45.58
2018-06-12T12:08:15.567Z,45.53
2018-06-12T12:13:09.986Z,45.47
2018-06-12T12:18:05.192Z,48.41
2018-06-12T12:23:00.028Z,47.99
2018-06-12T12:27:54.924Z,47.29
2018-06-12T12:32:49.349Z,47.52
2018-06-12T12:37:45.902Z,50.13
2018-06-12T12:42:40.476Z,51.10
2018-06-12T12:47:35.835Z,49.79
2018-06-12T12:52:31.188Z,49.24
2018-06-12T12:57:25.761Z,49.10
2018-06-12T13:02:19.915Z,49.22
2018-06-12T13:07:14.314Z,48.75
2018-06-12T13:12:08.872Z,48.62
2018-06-12T13:17:22.794Z,49.40
2018-06-12T13:22:17.408Z,50.36
2018-06-12T13:32:41.987Z,50.29
2018-06-12T13:37:39.108Z,50.12
2018-06-12T13:42:36.570Z,49.91
2018-06-12T13:47:33.267Z,49.83
2018-06-12T13:52:29.054Z,49.42
2018-06-12T13:57:24.150Z,49.92
2018-06-12T14:02:26.846Z,48.31
2018-06-12T14:07:22.476Z,49.64
2018-06-12T14:12:24.289Z,48.56
2018-06-12T14:17:19.370Z,48.70
2018-06-12T14:22:23.478Z,49.90
2018-06-12T14:27:30.875Z,51.54
2018-06-12T14:32:30.863Z,50.58
2018-06-12T14:37:26.555Z,51.68
2018-06-12T14:42:24.960Z,53.23
2018-06-12T14:47:31.389Z,52.70
2018-06-12T14:52:29.029Z,52.17
2018-06-12T14:57:25.765Z,51.74
2018-06-12T15:02:45.545Z,52.10
2018-06-12T15:13:17.248Z,49.52
2018-06-12T15:24:02.784Z,51.12
2018-06-12T15:29:08.600Z,52.92
2018-06-12T15:34:14.132Z,52.00
2018-06-12T15:39:17.911Z,49.35
2018-06-12T15:44:13.950Z,50.10
2018-06-12T15:49:12.311Z,51.00
2018-06-12T15:54:08.686Z,49.69
2018-06-12T15:59:10.568Z,48.36
2018-06-12T16:04:09.533Z,49.73
2018-06-12T16:09:07.610Z,51.71
2018-06-12T16:14:05.506Z,54.44
2018-06-12T16:19:08.157Z,59.06
2018-06-12T16:24:04.219Z,62.65
2018-06-12T16:28:59.887Z,63.41
2018-06-12T16:33:54.743Z,62.43
2018-06-12T16:38:50.022Z,64.53
2018-06-12T16:43:44.781Z,64.82
2018-06-12T16:48:39.438Z,66.26
2018-06-12T16:53:33.937Z,67.72
2018-06-12T16:58:28.486Z,65.93
2018-06-12T17:03:23.340Z,66.83
2018-06-12T17:08:18.162Z,67.12
2018-06-12T17:13:12.737Z,66.66
2018-06-12T17:18:07.652Z,65.18
2018-06-12T17:23:02.369Z,65.27
2018-06-12T17:27:56.797Z,66.19
2018-06-12T17:32:51.328Z,67.78
2018-06-12T17:37:47.417Z,70.27
2018-06-12T17:42:42.179Z,71.83
2018-06-12T17:47:37.191Z,70.92
2018-06-12T17:52:32.037Z,72.07
2018-06-12T17:57:26.540Z,72.71
2018-06-12T18:02:21.164Z,73.82
2018-06-12T18:07:15.785Z,75.17
2018-06-12T18:12:10.400Z,74.68
2018-06-12T18:17:05.207Z,75.79
2018-06-12T18:21:59.832Z,76.72
2018-06-12T18:26:54.273Z,76.22
2018-06-12T18:31:48.797Z,76.30
2018-06-12T18:36:43.291Z,77.74
2018-06-12T18:41:37.868Z,77.37
2018-06-12T18:46:32.386Z,78.49
2018-06-12T18:51:26.812Z,79.57
2018-06-12T18:56:22.092Z,81.13
2018-06-12T19:01:16.499Z,80.59
2018-06-12T19:06:10.989Z,79.53
2018-06-12T19:11:05.503Z,79.70
2018-06-12T19:15:59.952Z,79.59
2018-06-12T19:20:54.391Z,79.80
2018-06-12T19:25:48.840Z,79.74
2018-06-12T19:30:43.240Z,79.21
2018-06-12T19:35:37.665Z,80.54
2018-06-12T19:40:32.177Z,80.37
2018-06-12T19:45:26.609Z,81.41
2018-06-12T19:50:21.085Z,80.70
2018-06-12T19:55:15.561Z,80.82
2018-06-12T20:00:10.036Z,80.95
2018-06-12T20:05:04.320Z,80.79
2018-06-12T20:09:58.448Z,81.26
2018-06-12T20:14:52.872Z,82.13
2018-06-12T20:19:47.386Z,80.92
2018-06-12T20:24:43.358Z,80.13
2018-06-12T20:29:38.030Z,79.73
2018-06-12T20:34:32.624Z,78.83
2018-06-12T20:39:27.168Z,78.34
2018-06-12T20:44:21.670Z,78.67
2018-06-12T20:49:17.224Z,79.50
2018-06-12T20:54:11.740Z,79.36
2018-06-12T20:59:06.262Z,80.35
2018-06-12T21:04:00.725Z,80.08
2018-06-12T21:08:55.223Z,80.75
2018-06-12T21:13:49.637Z,80.16
2018-06-12T21:18:44.169Z,80.54
2018-06-12T21:23:38.715Z,79.63
2018-06-12T21:28:33.357Z,79.07
2018-06-12T21:33:28.049Z,79.21
2018-06-12T21:38:22.674Z,79.91
2018-06-12T21:43:17.199Z,80.19
2018-06-12T21:48:15.546Z,80.27
2018-06-12T21:53:10.193Z,79.35
2018-06-12T21:58:04.660Z,79.06
2018-06-12T22:02:59.197Z,80.45
2018-06-12T22:07:54.209Z,79.38
2018-06-12T22:12:48.665Z,77.55
2018-06-12T22:17:51.129Z,77.45
2018-06-12T22:22:45.628Z,79.19
2018-06-12T22:27:40.081Z,80.76
2018-06-12T22:32:34.500Z,80.67
2018-06-12T22:37:28.949Z,81.85
2018-06-12T22:42:23.399Z,82.39
2018-06-12T22:47:17.833Z,81.67
2018-06-12T22:52:12.228Z,82.60
2018-06-12T22:57:06.985Z,83.16
2018-06-12T23:02:01.119Z,83.21
2018-06-12T23:06:55.565Z,83.04
2018-06-12T23:11:49.997Z,82.97
2018-06-12T23:16:44.443Z,82.48
2018-06-12T23:21:55.805Z,82.75
2018-06-12T23:26:50.200Z,82.54
2018-06-12T23:31:44.628Z,83.23
2018-06-12T23:36:39.019Z,82.90
2018-06-12T23:41:33.434Z,84.00
2018-06-12T23:46:27.876Z,83.95
2018-06-12T23:51:22.376Z,83.63
2018-06-12T23:56:16.800Z,82.12
